Alexandria International Airport
KAEX : rendu visible

Aérodrome :











RETROUVEZ-NOUS SUR...

 
LOGIN :

S'inscrire | Disclaimer

   EN    FR    IT 

 









Légende :    VFR   VFR Marginal   IFR   IFR Intensif   IFR Très Intensif
Visi : 
Plafond : 
>= 8 km
>= 3000ft
5 à 8 km
1000 à 3000 ft
1500m à 5 km
500 à 1000 ft
800 à 1500m
200 à 500 ft
< 800m
< 200 ft
Symboles :   Orages  Brouillard  Fortes neiges  Fortes précipitations  Vent > 20 kt






- Altitude de l'aérodrome : 89 ft
- Code IATA : AEX


KAEX - Alexandria International

DERNIER METAR :
  • 260353Z 00000KT 10SM OVC035 21/19 A2984 RMK AO2 SLP109 T02060189

METARs EXPIRÉS :
  • 260253Z 16003KT 10SM SCT030 20/19 A2983 RMK AO2 SLP102 T02000189 53018
  • 260153Z 14003KT 10SM SCT031 20/18 A2981 RMK AO2 SLP096 T02000183

TAF KAEX
Valide du 26 à 00h jusqu'au 27 à 00h UTC


252322Z 2600/2624 13008KT P6SM VCTS SCT030 BKN050CB OVC150
FM260100 15003KT P6SM SCT035 BKN100
FM260800 00000KT P6SM BKN025
TEMPO 2610/2614 4SM BR BKN007 BKN020
FM261500 VRB04KT P6SM VCSH BKN025 OVC040
FM261800 31005KT P6SM VCTS BKN050CB
PROB30 2618/2624 P6SM -TSRA BKN035CB BKN250
FIR KZHU / Amérique du Nord



MET'MAP, la Météo Aéronautique d'un coup d'oeil ! - Copyright ORBIFLY Décembre 2007 - Disclaimer

ORBIFLY MET'MAP TEAM :

Programmation & Développement : Alexandra Zaïnal
Sur une idée originale de : Baudouin d'Aumeries
Assistance à la programmation : Marc-Olivier Méhu
Soutien technique & logistique : Manuel Goepfert

Contact : metmap@orbifly.com




SOURCES & CREDITS :

   NOAA       Earth
Advisory